sim
Sign-in with your pilot id or email,
or register
Callsign
Passwort

Schedule Details

Flight Number: DLH1716 (1)
Departure: Munich Airport (EDDM) at 16:35
Arrival: Split Airport (LDSP) at 17:55
Route: Lufthansa Passenger Schedule. Enter filed route here before submitting Pirep.

Weather Information
Getting current METAR information for EDDM 261820Z 24020G32KT 9999 -RA OVC023 07/04 Q1001 NOSIG
Getting current METAR information for LDSP 261800Z 30010KT 9999 SCT050 13/08 Q1000 NOSIG

Schedule Frequency

Route Map